Time;durP1;ratioP1;P1;durP2;ratioP2;P2;SDS_P1;SDS_P2;PMS_P1;PMS_P2;Temp;Humidity;BMP_temperature;BMP_pressure;BME280_temperature;BME280_humidity;BME280_pressure;Samples;Min_cycle;Max_cycle;Signal;HPM_P1;HPM_P2
2022/02/19 01:24:42;;;;;;;8.52;4.25;;;;;;;6.52;62.70;101281.09;5221207;23;20052;-70
2022/02/19 01:27:28;;;;;;;7.75;3.70;;;;;;;6.40;62.69;101287.06;4935789;29;20039;-70
2022/02/19 01:30:14;;;;;;;7.75;4.03;;;;;;;6.29;64.34;101288.72;4937283;29;20020;-70
2022/02/19 01:32:59;;;;;;;9.27;4.43;;;;;;;6.41;63.92;101278.41;4936315;29;20445;-70
2022/02/19 01:35:45;;;;;;;9.98;3.90;;;;;;;6.28;63.54;101288.69;4936879;29;20032;-70
2022/02/19 01:38:31;;;;;;;8.48;4.35;;;;;;;6.30;63.63;101282.63;4936696;29;20040;-70
2022/02/19 01:41:16;;;;;;;7.90;4.13;;;;;;;6.20;63.90;101261.72;4940625;29;20437;-71
2022/02/19 01:44:04;;;;;;;9.35;4.32;;;;;;;6.39;62.50;101267.09;4941027;29;20039;-70
2022/02/19 01:46:50;;;;;;;9.52;4.20;;;;;;;6.18;63.77;101266.91;4927270;29;20094;-71
2022/02/19 01:49:35;;;;;;;7.35;4.03;;;;;;;6.70;61.34;101283.81;4928135;29;20031;-70
2022/02/19 01:52:21;;;;;;;8.48;3.83;;;;;;;6.71;60.20;101291.63;4939906;29;20035;-70
2022/02/19 01:55:07;;;;;;;6.95;3.75;;;;;;;6.73;60.11;101295.13;4939970;29;20063;-71
2022/02/19 01:57:54;;;;;;;6.05;3.70;;;;;;;6.55;60.81;101294.13;4939612;29;20042;-72
2022/02/19 02:00:41;;;;;;;8.93;3.85;;;;;;;6.93;59.86;101293.53;4940161;29;20123;-70
2022/02/19 02:03:26;;;;;;;9.77;3.55;;;;;;;6.86;59.33;101276.13;4939715;29;20032;-70
2022/02/19 02:06:13;;;;;;;8.57;3.40;;;;;;;7.07;59.04;101275.41;4939998;29;20028;-69
2022/02/19 02:09:00;;;;;;;9.98;3.80;;;;;;;7.03;58.47;101284.06;4939766;29;20024;-70
2022/02/19 02:11:45;;;;;;;9.40;3.78;;;;;;;7.05;58.20;101279.72;4940236;29;20031;-70
2022/02/19 02:14:37;;;;;;;5.88;3.50;;;;;;;7.22;57.93;101268.53;4940491;29;20128;-71
2022/02/19 02:17:23;;;;;;;7.15;3.55;;;;;;;7.23;58.18;101257.22;4939648;29;20126;-70
2022/02/19 02:20:10;;;;;;;8.25;3.33;;;;;;;7.34;58.50;101262.47;4926838;29;20031;-71
2022/02/19 02:22:57;;;;;;;9.15;3.78;;;;;;;7.08;58.81;101269.31;4939550;29;20350;-71
2022/02/19 04:56:07;;;;;;;9.35;4.72;;;;;;;5.02;91.21;101225.75;5644398;23;20074;-70
2022/02/19 04:58:53;;;;;;;11.55;5.32;;;;;;;4.77;95.13;101229.75;4936719;29;20053;-70
2022/02/19 05:01:40;;;;;;;11.68;4.57;;;;;;;4.81;92.41;101221.16;4937155;29;20035;-71
2022/02/19 05:41:41;;;;;;;14.48;7.80;;;;;;;4.82;100.00;101181.34;5908299;23;20015;-72
2022/02/19 10:41:12;;;;;;;7.25;3.30;;;;;;;17.33;35.52;101106.88;4900827;29;20041;-72
2022/02/19 10:43:58;;;;;;;8.13;2.63;;;;;;;17.27;36.02;101107.09;4901612;29;20468;-71
2022/02/19 10:46:43;;;;;;;7.55;3.30;;;;;;;17.94;35.15;101098.22;4910502;29;20028;-72
2022/02/19 10:49:29;;;;;;;5.53;3.00;;;;;;;17.62;35.43;101091.59;4907285;29;20024;-71
2022/02/19 10:52:15;;;;;;;9.68;3.15;;;;;;;17.38;35.94;101091.66;4906556;29;20039;-71
2022/02/19 10:55:06;;;;;;;7.55;3.17;;;;;;;18.17;35.35;101087.50;4907332;29;20039;-71
2022/02/19 10:57:56;;;;;;;8.68;3.13;;;;;;;17.95;35.44;101084.88;4920274;29;20035;-72
2022/02/19 13:08:58;;;;;;;7.40;2.80;;;;;;;20.19;28.07;100975.94;5820629;23;20418;-71
2022/02/19 13:11:50;;;;;;;9.93;2.50;;;;;;;20.33;28.38;100976.06;4936790;29;20379;-71
2022/02/19 13:14:35;;;;;;;7.03;2.45;;;;;;;20.39;28.48;100974.88;4936878;29;20027;-71
2022/02/19 13:17:22;;;;;;;5.15;2.13;;;;;;;20.10;28.37;100965.78;4909680;29;20180;-71
2022/02/19 13:20:14;;;;;;;6.43;2.90;;;;;;;20.51;28.05;100968.88;4904771;29;20445;-69
2022/02/19 13:23:01;;;;;;;6.57;2.28;;;;;;;20.26;28.35;100977.34;4917017;29;20091;-72
2022/02/19 13:25:47;;;;;;;5.68;2.67;;;;;;;19.91;28.21;100972.97;4918634;29;20039;-71
2022/02/19 13:28:33;;;;;;;3.55;2.10;;;;;;;20.06;28.05;100974.84;4917304;29;20472;-71
2022/02/19 13:31:21;;;;;;;6.20;2.33;;;;;;;19.81;27.86;100977.00;4917636;29;20042;-70
2022/02/19 13:34:07;;;;;;;5.68;2.17;;;;;;;19.86;28.07;100982.13;4917424;29;20036;-71
2022/02/19 13:36:53;;;;;;;6.13;2.10;;;;;;;20.06;27.89;100974.84;4922696;29;20032;-71
2022/02/19 13:39:40;;;;;;;4.95;1.90;;;;;;;19.69;28.03;100974.97;4922380;29;20024;-71
2022/02/19 13:42:57;;;;;;;6.57;1.80;;;;;;;19.79;28.14;100964.75;4907953;29;20119;-70
2022/02/19 13:45:45;;;;;;;5.13;1.92;;;;;;;19.80;27.70;100977.97;4915143;29;20044;-71
2022/02/19 13:48:32;;;;;;;8.95;1.85;;;;;;;19.91;27.43;100974.75;4922051;29;20119;-70
2022/02/19 15:47:35;;;;;;;9.10;4.20;;;;;;;17.06;33.95;100992.28;5261338;23;20051;-70
2022/02/19 15:50:21;;;;;;;9.57;3.75;;;;;;;17.18;33.78;101002.41;4937761;29;20131;-71
2022/02/19 15:53:07;;;;;;;7.57;3.80;;;;;;;17.01;34.30;101011.94;4939578;28;20027;-71
2022/02/19 15:55:54;;;;;;;7.35;3.22;;;;;;;16.87;34.51;101009.81;4938618;29;20031;-70
2022/02/19 15:58:40;;;;;;;12.18;3.80;;;;;;;16.81;34.82;100998.59;4938038;29;20028;-71
2022/02/19 16:01:25;;;;;;;10.45;3.58;;;;;;;16.80;35.05;101005.66;4938211;29;20045;-72
2022/02/19 16:04:11;;;;;;;8.70;4.25;;;;;;;16.68;35.18;101002.63;4925612;29;20373;-72
2022/02/19 16:06:57;;;;;;;8.20;4.00;;;;;;;16.82;35.08;101002.97;4925830;29;20039;-72
2022/02/19 16:09:44;;;;;;;9.23;3.95;;;;;;;16.76;35.09;101011.16;4925201;29;20042;-72
2022/02/19 16:12:29;;;;;;;8.10;4.07;;;;;;;16.82;35.15;101006.47;4938201;29;20067;-72
2022/02/19 16:15:15;;;;;;;7.45;4.07;;;;;;;16.72;35.29;101007.72;4937452;29;20509;-72
2022/02/19 16:18:01;;;;;;;11.30;4.85;;;;;;;16.42;35.68;101016.81;4938724;29;20114;-72
2022/02/19 16:20:46;;;;;;;11.55;4.70;;;;;;;16.46;35.85;101020.22;4925467;29;20034;-72
2022/02/19 18:04:11;;;;;;;27.85;16.35;;;;;;;14.49;41.10;101106.66;5667448;23;20449;-72
2022/02/19 18:06:57;;;;;;;31.77;16.48;;;;;;;14.58;40.55;101116.94;4935950;29;20140;-72
2022/02/19 18:09:43;;;;;;;29.38;16.70;;;;;;;14.38;41.17;101116.63;4936722;29;20453;-73
2022/02/19 18:12:30;;;;;;;27.30;16.08;;;;;;;14.58;40.89;101127.50;4935595;29;20103;-73
2022/02/19 18:15:16;;;;;;;35.22;18.23;;;;;;;14.49;40.96;101127.75;4936338;29;20023;-73
2022/02/19 18:18:02;;;;;;;31.83;19.63;;;;;;;14.61;40.37;101129.16;4936371;29;20032;-72
2022/02/19 18:20:48;;;;;;;35.35;18.83;;;;;;;14.48;41.07;101133.06;4937406;29;20043;-72
2022/02/19 18:23:33;;;;;;;32.97;18.85;;;;;;;14.43;40.59;101141.06;4940674;29;20039;-72
2022/02/19 18:26:19;;;;;;;34.13;18.33;;;;;;;14.22;41.30;101135.50;4940158;29;20051;-72
2022/02/19 18:29:07;;;;;;;30.70;17.33;;;;;;;14.32;41.00;101134.38;4939630;29;20040;-72
2022/02/19 18:31:53;;;;;;;29.52;16.30;;;;;;;14.20;40.94;101145.19;4939781;29;20098;-72
2022/02/19 18:34:39;;;;;;;30.42;17.30;;;;;;;13.74;41.74;101148.06;4939414;29;20368;-73
2022/02/19 18:37:26;;;;;;;31.85;16.90;;;;;;;13.82;41.88;101151.38;4939611;29;20040;-73
2022/02/19 18:40:13;;;;;;;30.65;16.70;;;;;;;13.61;42.08;101157.16;4939823;29;20038;-72
2022/02/19 18:42:58;;;;;;;32.72;16.48;;;;;;;13.61;41.95;101162.44;4939679;29;20028;-73
2022/02/19 18:45:44;;;;;;;26.63;15.05;;;;;;;13.78;41.55;101162.03;4939906;29;20421;-72
2022/02/19 18:48:30;;;;;;;29.73;15.35;;;;;;;13.89;41.43;101167.91;4926775;29;20028;-72
2022/02/19 18:51:16;;;;;;;31.38;16.05;;;;;;;13.77;41.65;101169.06;4939584;29;20035;-72
2022/02/19 18:54:02;;;;;;;29.02;15.00;;;;;;;13.61;41.92;101164.19;4939955;29;20051;-72
2022/02/19 18:56:47;;;;;;;29.83;16.48;;;;;;;13.90;41.57;101167.88;4925815;29;20071;-72
2022/02/19 18:59:33;;;;;;;30.45;15.95;;;;;;;13.75;41.85;101177.91;4939717;29;20027;-72
2022/02/19 19:02:19;;;;;;;26.73;15.18;;;;;;;13.97;41.58;101177.38;4939591;29;20455;-72
2022/02/19 19:10:40;;;;;;;33.45;18.00;;;;;;;13.57;42.18;101187.09;5002482;23;20063;-72
2022/02/19 19:13:25;;;;;;;30.95;16.80;;;;;;;13.55;42.00;101191.50;4939659;29;20032;-71
2022/02/19 19:16:15;;;;;;;32.95;18.55;;;;;;;13.67;41.94;101196.50;4938345;29;20038;-72
2022/02/19 19:19:01;;;;;;;29.63;16.85;;;;;;;13.79;42.02;101195.38;4925142;29;20046;-73
2022/02/19 19:21:47;;;;;;;36.35;16.73;;;;;;;13.34;42.63;101199.03;4939144;29;20055;-74
2022/02/19 19:24:33;;;;;;;27.70;15.88;;;;;;;13.83;42.10;101194.41;4925405;29;20028;-72
2022/02/19 19:27:19;;;;;;;32.80;16.33;;;;;;;13.92;41.86;101202.97;4912631;29;20058;-73
2022/02/19 19:30:05;;;;;;;29.17;15.15;;;;;;;13.60;42.20;101188.78;4939008;29;20023;-73
2022/02/19 19:32:51;;;;;;;33.95;15.73;;;;;;;13.42;42.50;101184.78;4938079;29;20024;-72
2022/02/19 19:35:37;;;;;;;32.72;15.63;;;;;;;13.73;41.98;101193.75;4938710;29;20035;-72
2022/02/19 19:38:25;;;;;;;35.50;15.73;;;;;;;13.49;42.40;101186.41;4938339;29;20036;-72
2022/02/19 19:41:15;;;;;;;29.85;14.70;;;;;;;13.61;42.12;101186.13;4938532;29;20034;-73
2022/02/19 19:44:03;;;;;;;26.08;14.23;;;;;;;13.67;42.17;101188.59;4938784;29;20405;-71
2022/02/19 19:46:49;;;;;;;25.13;14.02;;;;;;;13.87;42.08;101183.75;4938497;29;20377;-71
2022/02/19 19:49:39;;;;;;;24.92;13.75;;;;;;;13.73;41.97;101191.13;4938144;29;20063;-70
2022/02/19 19:52:27;;;;;;;27.60;13.88;;;;;;;13.51;42.19;101187.22;4937851;29;20475;-71
2022/02/19 19:55:14;;;;;;;25.35;13.18;;;;;;;13.71;41.92;101192.91;4938336;29;20042;-72
2022/02/19 19:58:00;;;;;;;23.75;12.90;;;;;;;13.52;42.16;101191.59;4925301;29;20033;-72
2022/02/19 20:00:45;;;;;;;29.77;13.73;;;;;;;13.48;42.25;101182.03;4938336;29;20027;-72
2022/02/19 20:03:31;;;;;;;24.38;12.80;;;;;;;13.54;42.31;101181.88;4937631;29;20066;-73
2022/02/19 20:06:17;;;;;;;23.08;12.88;;;;;;;13.66;41.77;101186.88;4938290;29;20342;-72
2022/02/19 20:09:03;;;;;;;24.90;13.68;;;;;;;13.48;42.26;101186.41;4937672;28;20441;-73
2022/02/19 20:11:49;;;;;;;24.50;13.20;;;;;;;13.46;42.41;101181.19;4938496;29;20024;-73
2022/02/19 20:14:38;;;;;;;26.58;13.23;;;;;;;13.61;42.02;101183.50;4937227;29;20034;-73
